Time;durP1;ratioP1;P1;durP2;ratioP2;P2;SDS_P1;SDS_P2;PMS_P1;PMS_P2;Temp;Humidity;BMP_temperature;BMP_pressure;BME280_temperature;BME280_humidity;BME280_pressure;Samples;Min_cycle;Max_cycle;Signal;HPM_P1;HPM_P2
2021/11/23 00:00:17;;;;;;;25.05;10.40;;;2.10;93.70;;;;;;5036039;28;20029;-79
2021/11/23 00:02:43;;;;;;;23.03;10.17;;;2.10;93.70;;;;;;5058099;28;20028;-79
2021/11/23 00:05:11;;;;;;;23.60;11.00;;;2.10;93.70;;;;;;5073547;28;20078;-79
2021/11/23 00:07:37;;;;;;;27.35;12.32;;;2.20;93.70;;;;;;5055070;28;20037;-79
2021/11/23 00:10:04;;;;;;;22.80;10.63;;;2.10;93.80;;;;;;5073386;28;20096;-79
2021/11/23 00:12:30;;;;;;;20.58;8.90;;;2.00;93.60;;;;;;5072592;28;20025;-79
2021/11/23 00:14:56;;;;;;;26.70;8.63;;;2.00;93.70;;;;;;5072377;28;20074;-79
2021/11/23 00:17:21;;;;;;;16.17;7.10;;;1.90;93.70;;;;;;5055094;28;20032;-79
2021/11/23 00:19:47;;;;;;;20.10;7.78;;;1.80;93.80;;;;;;5038848;28;20067;-79
2021/11/23 00:22:13;;;;;;;12.10;6.55;;;1.80;93.90;;;;;;5053351;28;20072;-79
2021/11/23 00:24:39;;;;;;;12.55;6.63;;;1.80;93.90;;;;;;5051798;28;20040;-79
2021/11/23 00:27:05;;;;;;;14.63;6.30;;;1.80;94.00;;;;;;5051578;28;20032;-79
2021/11/23 00:29:32;;;;;;;14.48;6.50;;;1.80;94.00;;;;;;5052656;28;20089;-79
2021/11/23 00:31:58;;;;;;;10.95;6.38;;;1.90;94.00;;;;;;5053843;28;20079;-79
2021/11/23 00:34:24;;;;;;;11.35;6.28;;;1.90;93.90;;;;;;5071663;28;20499;-79
2021/11/23 00:36:51;;;;;;;12.05;6.25;;;1.90;93.90;;;;;;5035443;28;20036;-80
2021/11/23 00:39:17;;;;;;;14.80;7.07;;;2.00;94.20;;;;;;5054402;28;20078;-79
2021/11/23 00:41:48;;;;;;;15.35;6.32;;;2.00;93.80;;;;;;5072259;28;20036;-79
2021/11/23 00:44:21;;;;;;;13.85;6.78;;;1.90;93.90;;;;;;5072881;28;20029;-81
2021/11/23 00:46:47;;;;;;;13.93;6.38;;;1.90;93.90;;;;;;5072329;28;20405;-81
2021/11/23 00:49:14;;;;;;;14.02;6.63;;;1.90;93.90;;;;;;5054764;28;20027;-81
2021/11/23 00:51:40;;;;;;;10.98;6.13;;;2.10;94.30;;;;;;5072859;28;20039;-81
2021/11/23 00:54:07;;;;;;;13.32;5.95;;;2.00;94.00;;;;;;5054774;28;20036;-81
2021/11/23 00:56:33;;;;;;;15.02;6.68;;;2.00;93.90;;;;;;5071381;28;20055;-81
2021/11/23 00:58:59;;;;;;;9.50;6.10;;;2.10;93.90;;;;;;5053520;28;20036;-81
2021/11/23 01:01:24;;;;;;;12.00;6.10;;;2.10;93.90;;;;;;5055830;28;20024;-81
2021/11/23 01:03:50;;;;;;;10.43;5.82;;;2.00;93.80;;;;;;5052459;28;20036;-81
2021/11/23 01:06:16;;;;;;;10.02;5.50;;;2.10;93.90;;;;;;5035764;28;20047;-81
2021/11/23 01:08:42;;;;;;;11.00;5.25;;;2.10;93.80;;;;;;5037691;28;20032;-81
2021/11/23 01:11:10;;;;;;;9.05;5.75;;;2.00;93.70;;;;;;5034859;28;20036;-81
2021/11/23 01:13:37;;;;;;;9.85;5.65;;;1.90;93.70;;;;;;5066328;28;20059;-81
2021/11/23 01:16:04;;;;;;;11.20;5.50;;;1.90;94.00;;;;;;5054608;28;20086;-81
2021/11/23 01:18:32;;;;;;;12.35;6.32;;;1.90;93.70;;;;;;5072646;28;20554;-81
2021/11/23 01:20:58;;;;;;;12.75;6.57;;;1.80;93.80;;;;;;5034948;28;20057;-81
2021/11/23 01:23:26;;;;;;;15.73;6.72;;;1.80;93.90;;;;;;5034737;28;20444;-81
2021/11/23 01:25:52;;;;;;;17.73;8.20;;;1.70;93.90;;;;;;5054718;28;20091;-81
2021/11/23 01:28:18;;;;;;;11.75;7.40;;;1.70;94.10;;;;;;5054335;28;20020;-81
2021/11/23 01:30:44;;;;;;;18.80;8.63;;;1.60;94.10;;;;;;5072427;28;20441;-81
2021/11/23 01:33:11;;;;;;;12.07;7.35;;;1.60;94.10;;;;;;5072417;28;20115;-81
2021/11/23 01:35:37;;;;;;;24.88;8.35;;;1.60;94.20;;;;;;5072634;28;20020;-81
2021/11/23 01:38:02;;;;;;;13.80;8.68;;;1.50;94.30;;;;;;5054539;28;20048;-81
2021/11/23 01:40:28;;;;;;;15.68;7.57;;;1.50;94.30;;;;;;5072227;28;20482;-80
2021/11/23 01:42:54;;;;;;;14.50;7.03;;;1.50;94.40;;;;;;5054323;28;20024;-80
2021/11/23 01:45:20;;;;;;;13.77;7.20;;;1.60;94.40;;;;;;5054595;28;20095;-81
2021/11/23 01:47:46;;;;;;;13.55;7.75;;;1.60;94.40;;;;;;5037866;28;20055;-81
2021/11/23 01:50:12;;;;;;;15.55;6.65;;;1.60;94.40;;;;;;5072465;28;20060;-80
2021/11/23 01:52:39;;;;;;;13.88;6.72;;;1.50;94.40;;;;;;5053803;28;20401;-80
2021/11/23 01:55:08;;;;;;;11.02;6.78;;;1.60;94.40;;;;;;5053653;28;20052;-80
2021/11/23 01:57:35;;;;;;;15.07;7.63;;;1.60;94.40;;;;;;5072238;28;20023;-81
2021/11/23 02:00:07;;;;;;;11.55;6.95;;;1.60;94.40;;;;;;5053773;28;20067;-80
2021/11/23 02:02:33;;;;;;;17.67;7.43;;;1.70;94.40;;;;;;5055815;28;20115;-79
2021/11/23 02:04:59;;;;;;;14.00;8.18;;;1.70;94.40;;;;;;5057166;28;20120;-78
2021/11/23 02:07:24;;;;;;;18.17;7.95;;;1.70;94.30;;;;;;5056832;28;20064;-78
2021/11/23 02:09:50;;;;;;;21.83;7.95;;;1.70;94.30;;;;;;5056959;28;20025;-78
2021/11/23 02:12:17;;;;;;;17.83;8.25;;;1.70;94.30;;;;;;5056699;28;20037;-78
2021/11/23 02:14:43;;;;;;;18.33;8.30;;;1.70;94.30;;;;;;5074667;28;20384;-78
2021/11/23 02:17:08;;;;;;;16.73;8.05;;;1.60;94.30;;;;;;5074785;28;20028;-78
2021/11/23 02:19:34;;;;;;;14.90;7.47;;;1.60;94.40;;;;;;5074224;28;20051;-78
2021/11/23 02:22:00;;;;;;;15.45;8.15;;;1.60;94.40;;;;;;5072879;28;20115;-78
2021/11/23 02:24:27;;;;;;;19.17;7.93;;;1.60;94.40;;;;;;5033346;28;20040;-78
2021/11/23 02:26:53;;;;;;;19.60;8.35;;;1.60;94.40;;;;;;5037431;28;20040;-78
2021/11/23 02:29:19;;;;;;;17.15;8.15;;;1.50;94.30;;;;;;5072131;28;20021;-79
2021/11/23 02:31:44;;;;;;;16.70;8.02;;;1.50;94.40;;;;;;5054265;28;20389;-79
2021/11/23 02:34:11;;;;;;;16.75;7.95;;;1.50;94.40;;;;;;5053712;28;20552;-78
2021/11/23 02:36:38;;;;;;;15.45;8.00;;;1.50;94.50;;;;;;5038041;28;20033;-78
2021/11/23 02:39:05;;;;;;;19.65;8.68;;;1.60;94.50;;;;;;5054523;28;20086;-79
2021/11/23 02:41:32;;;;;;;19.05;7.40;;;1.60;94.50;;;;;;5074921;28;20107;-78
2021/11/23 02:43:58;;;;;;;19.38;8.65;;;1.60;94.40;;;;;;5037289;28;20036;-78
2021/11/23 02:46:24;;;;;;;18.35;8.35;;;1.70;94.30;;;;;;5066752;28;20059;-79
2021/11/23 02:48:50;;;;;;;23.60;8.45;;;1.60;94.20;;;;;;5056634;28;20432;-78
2021/11/23 02:51:16;;;;;;;17.50;8.25;;;1.60;94.50;;;;;;5056318;28;20029;-78
2021/11/23 02:53:44;;;;;;;19.25;8.50;;;1.50;94.30;;;;;;5056442;28;20032;-78
2021/11/23 02:56:10;;;;;;;14.55;7.88;;;1.50;94.40;;;;;;5044130;28;20410;-78
2021/11/23 02:58:36;;;;;;;20.35;8.13;;;1.50;94.40;;;;;;5067946;28;20031;-78
2021/11/23 03:01:05;;;;;;;15.60;8.18;;;1.50;94.30;;;;;;5073650;28;20063;-78
2021/11/23 03:03:31;;;;;;;;;;;1.50;94.40;;;;;;5074090;28;20111;-78
2021/11/23 03:05:56;;;;;;;19.05;8.15;;;1.60;94.40;;;;;;5072215;28;20008;-78
2021/11/23 03:08:23;;;;;;;18.73;8.30;;;1.60;94.30;;;;;;5051937;28;20021;-78
2021/11/23 03:10:49;;;;;;;18.10;8.32;;;1.60;94.30;;;;;;5054179;28;20055;-78
2021/11/23 03:13:14;;;;;;;22.63;8.65;;;1.60;94.30;;;;;;5067578;28;20025;-78
2021/11/23 03:15:40;;;;;;;16.83;7.93;;;1.60;94.30;;;;;;5066303;28;20432;-79
2021/11/23 03:18:06;;;;;;;18.60;8.60;;;1.60;94.40;;;;;;5052384;28;20025;-80
2021/11/23 03:20:32;;;;;;;13.60;7.95;;;1.60;94.40;;;;;;5054155;28;20021;-80
2021/11/23 03:22:58;;;;;;;15.77;7.28;;;1.60;94.30;;;;;;5072590;28;20035;-80
2021/11/23 03:25:25;;;;;;;14.77;8.00;;;1.70;94.30;;;;;;5072859;28;20020;-80
2021/11/23 03:27:51;;;;;;;17.65;8.68;;;1.70;94.60;;;;;;5073880;28;20035;-80
2021/11/23 03:30:22;;;;;;;15.13;8.55;;;1.70;94.30;;;;;;5073008;28;20024;-80
2021/11/23 03:32:48;;;;;;;18.83;8.98;;;1.70;94.30;;;;;;5074210;28;20028;-80
2021/11/23 03:35:15;;;;;;;17.13;8.73;;;1.80;94.60;;;;;;5074361;28;20099;-80
2021/11/23 03:37:42;;;;;;;16.38;9.45;;;1.80;94.30;;;;;;5058684;28;20526;-81
2021/11/23 03:40:09;;;;;;;19.10;8.23;;;1.80;94.30;;;;;;5054257;28;20841;-80
2021/11/23 03:42:34;;;;;;;18.80;8.70;;;1.80;94.30;;;;;;5058497;28;20174;-81
2021/11/23 03:45:00;;;;;;;15.80;9.10;;;1.80;94.30;;;;;;5073458;28;20059;-80
2021/11/23 03:47:31;;;;;;;18.10;8.52;;;1.90;94.40;;;;;;5070072;28;20032;-79
2021/11/23 03:49:58;;;;;;;19.90;9.52;;;1.90;94.40;;;;;;5053633;28;20028;-79
2021/11/23 03:52:24;;;;;;;18.95;10.25;;;1.90;94.30;;;;;;5068847;28;20033;-78
2021/11/23 03:54:51;;;;;;;14.15;8.27;;;1.90;94.40;;;;;;5069385;28;20043;-79
2021/11/23 03:57:17;;;;;;;14.90;9.55;;;1.90;94.50;;;;;;5055255;28;20101;-81
2021/11/23 03:59:47;;;;;;;16.52;9.20;;;1.90;94.80;;;;;;5073895;28;20052;-80
2021/11/23 04:02:16;;;;;;;17.38;10.50;;;2.00;94.60;;;;;;5059338;28;20112;-80
2021/11/23 04:04:43;;;;;;;16.05;9.02;;;2.10;94.50;;;;;;5054032;28;20021;-81
2021/11/23 04:07:09;;;;;;;17.52;11.52;;;2.10;94.50;;;;;;5035849;28;20025;-80
2021/11/23 04:09:34;;;;;;;16.92;9.65;;;2.10;94.50;;;;;;5035867;28;20025;-80
2021/11/23 04:12:00;;;;;;;16.63;9.68;;;2.10;94.60;;;;;;5020981;28;20028;-80
2021/11/23 04:14:26;;;;;;;18.48;10.20;;;2.10;94.70;;;;;;5073384;28;20021;-80
2021/11/23 04:16:51;;;;;;;15.80;10.02;;;2.10;94.70;;;;;;5035411;28;20040;-80
2021/11/23 04:19:17;;;;;;;21.02;9.98;;;2.10;94.80;;;;;;5035375;28;20033;-81
2021/11/23 04:21:43;;;;;;;23.60;10.77;;;2.10;94.80;;;;;;5045716;28;20545;-80
2021/11/23 04:24:08;;;;;;;17.02;10.20;;;2.10;94.90;;;;;;5051891;28;20041;-81
2021/11/23 04:26:34;;;;;;;14.40;9.52;;;2.20;95.00;;;;;;5031944;28;20122;-80
2021/11/23 04:29:00;;;;;;;18.77;10.55;;;2.20;95.00;;;;;;5055019;28;20473;-81
2021/11/23 04:31:25;;;;;;;19.98;12.65;;;2.20;95.10;;;;;;5052082;28;20044;-81
2021/11/23 04:33:51;;;;;;;27.42;12.20;;;2.20;95.00;;;;;;5068403;28;20033;-81
2021/11/23 04:36:17;;;;;;;18.10;10.27;;;2.30;95.10;;;;;;5053653;28;20028;-81
2021/11/23 04:38:42;;;;;;;22.05;10.73;;;2.30;95.10;;;;;;5037874;28;20056;-81
2021/11/23 04:41:08;;;;;;;18.73;10.43;;;2.30;95.20;;;;;;5054849;28;20139;-81
2021/11/23 04:43:34;;;;;;;17.00;10.15;;;2.30;95.20;;;;;;5054709;28;20473;-81
2021/11/23 04:45:59;;;;;;;18.25;11.35;;;2.30;95.20;;;;;;5038164;28;20032;-81
2021/11/23 04:48:26;;;;;;;17.90;10.63;;;2.40;95.30;;;;;;5054285;28;20058;-81
2021/11/23 04:50:52;;;;;;;32.08;13.13;;;2.40;95.30;;;;;;5051927;28;20078;-81
2021/11/23 04:53:17;;;;;;;26.13;12.77;;;2.50;95.30;;;;;;5034818;28;20029;-81
2021/11/23 04:55:43;;;;;;;18.73;10.90;;;2.50;95.30;;;;;;5056750;28;20454;-81
2021/11/23 04:58:09;;;;;;;24.77;12.70;;;2.50;95.30;;;;;;5053295;28;20056;-81
2021/11/23 05:00:35;;;;;;;20.15;12.35;;;2.50;95.40;;;;;;5071045;28;20056;-81
2021/11/23 05:03:00;;;;;;;23.15;12.27;;;2.50;95.50;;;;;;5034183;28;20021;-81
2021/11/23 05:05:27;;;;;;;20.48;13.02;;;2.50;95.50;;;;;;5051383;28;20025;-81
2021/11/23 05:07:53;;;;;;;19.70;11.23;;;2.50;95.50;;;;;;5023621;28;20506;-81
2021/11/23 05:10:18;;;;;;;20.48;12.35;;;2.50;95.60;;;;;;5051629;28;20025;-81
2021/11/23 05:12:44;;;;;;;21.13;11.60;;;2.50;95.60;;;;;;5062430;28;20496;-81
2021/11/23 05:15:10;;;;;;;20.45;12.10;;;2.50;95.60;;;;;;5054819;28;20098;-81
2021/11/23 05:17:36;;;;;;;18.75;11.80;;;2.50;95.70;;;;;;5070725;28;20035;-81
2021/11/23 05:20:05;;;;;;;21.02;12.65;;;2.60;95.70;;;;;;5053701;28;20037;-80
2021/11/23 05:22:30;;;;;;;16.92;10.95;;;2.60;95.80;;;;;;5070311;28;20036;-81
2021/11/23 05:24:56;;;;;;;19.60;11.20;;;2.60;95.80;;;;;;5070782;28;20033;-81
2021/11/23 05:27:22;;;;;;;24.08;13.30;;;2.60;95.80;;;;;;5040342;28;20041;-81
2021/11/23 05:29:48;;;;;;;22.58;12.38;;;2.60;95.80;;;;;;5049186;28;20429;-81
2021/11/23 05:32:13;;;;;;;18.13;12.27;;;2.70;95.90;;;;;;5048662;28;20512;-81
2021/11/23 05:34:39;;;;;;;17.05;12.50;;;2.70;96.00;;;;;;5068520;28;20029;-81
2021/11/23 05:37:05;;;;;;;23.50;13.07;;;2.60;96.00;;;;;;5070499;28;20032;-81
2021/11/23 05:39:30;;;;;;;21.65;12.60;;;2.70;96.10;;;;;;5039965;28;20123;-81
2021/11/23 05:41:56;;;;;;;23.45;13.90;;;2.70;96.10;;;;;;5072438;28;20051;-81
2021/11/23 05:44:22;;;;;;;21.58;14.23;;;2.70;96.10;;;;;;5072656;28;20041;-81
2021/11/23 05:46:47;;;;;;;28.77;15.05;;;2.70;96.10;;;;;;5074782;28;20528;-81
2021/11/23 05:49:15;;;;;;;25.48;13.30;;;2.70;96.10;;;;;;5076472;28;20420;-81
2021/11/23 05:51:40;;;;;;;24.08;13.00;;;2.70;96.20;;;;;;5074960;28;20048;-81
2021/11/23 05:54:06;;;;;;;20.85;13.32;;;2.70;96.20;;;;;;5058472;28;20106;-81
2021/11/23 05:56:32;;;;;;;18.25;12.93;;;2.80;96.30;;;;;;5074373;28;20056;-81
2021/11/23 05:58:58;;;;;;;26.33;14.82;;;2.80;96.20;;;;;;5054724;28;20040;-81
2021/11/23 06:01:23;;;;;;;24.20;13.30;;;2.80;96.30;;;;;;5054952;28;20040;-81
2021/11/23 06:03:49;;;;;;;21.63;13.27;;;2.80;96.30;;;;;;5071570;28;20025;-81
2021/11/23 06:06:15;;;;;;;21.80;13.90;;;2.90;96.30;;;;;;5056201;28;20443;-81
2021/11/23 06:08:41;;;;;;;22.38;14.57;;;2.90;96.30;;;;;;5070398;28;20046;-81
2021/11/23 06:11:07;;;;;;;23.42;13.73;;;2.90;96.30;;;;;;5076038;28;20028;-81
2021/11/23 06:13:34;;;;;;;23.15;14.63;;;2.90;96.30;;;;;;5074610;28;20124;-81
2021/11/23 06:15:59;;;;;;;24.75;16.15;;;3.00;96.60;;;;;;5074420;28;20048;-81
2021/11/23 06:18:25;;;;;;;26.17;16.45;;;3.00;96.40;;;;;;5078764;28;20047;-81
2021/11/23 06:20:55;;;;;;;33.88;18.17;;;3.00;96.40;;;;;;5074689;28;20029;-81
2021/11/23 06:23:22;;;;;;;23.17;14.90;;;3.10;96.50;;;;;;5058344;28;20036;-81
2021/11/23 06:25:52;;;;;;;27.38;16.88;;;3.10;96.50;;;;;;5058128;28;20024;-81
2021/11/23 06:28:19;;;;;;;22.67;15.45;;;3.10;96.80;;;;;;5074478;28;20075;-81
2021/11/23 06:30:45;;;;;;;30.40;15.60;;;3.10;96.50;;;;;;5049999;28;20036;-81
2021/11/23 06:33:11;;;;;;;30.63;18.55;;;3.10;96.50;;;;;;5071029;28;20033;-81
2021/11/23 06:35:37;;;;;;;22.38;16.00;;;3.10;96.50;;;;;;5073630;28;20065;-81
2021/11/23 06:38:04;;;;;;;26.30;15.60;;;3.20;96.60;;;;;;5053920;28;20123;-81
2021/11/23 06:40:31;;;;;;;26.23;16.27;;;3.20;96.60;;;;;;5058537;28;20025;-81
2021/11/23 06:42:56;;;;;;;36.83;16.48;;;3.20;96.60;;;;;;5051055;28;20171;-82
2021/11/23 06:45:22;;;;;;;35.92;18.60;;;3.30;96.60;;;;;;5052983;28;20512;-79
2021/11/23 06:47:50;;;;;;;28.40;18.17;;;3.30;96.90;;;;;;5053862;28;20032;-81
2021/11/23 06:50:15;;;;;;;25.35;16.45;;;3.30;96.60;;;;;;5072051;28;20059;-81
2021/11/23 06:52:41;;;;;;;25.65;15.98;;;3.30;96.90;;;;;;5071173;28;20133;-81
2021/11/23 06:55:08;;;;;;;26.63;16.23;;;3.30;96.70;;;;;;5055190;28;20044;-81
2021/11/23 06:57:33;;;;;;;30.88;18.10;;;3.30;96.70;;;;;;5040114;28;20028;-81
2021/11/23 07:00:00;;;;;;;34.42;20.27;;;3.30;96.60;;;;;;5024070;28;20131;-81
2021/11/23 07:02:26;;;;;;;37.15;20.95;;;3.40;96.70;;;;;;5074901;28;20020;-81
2021/11/23 07:04:51;;;;;;;31.75;19.05;;;3.40;96.70;;;;;;5020150;28;20044;-81
2021/11/23 07:07:17;;;;;;;29.75;18.08;;;3.40;96.70;;;;;;5036738;28;20083;-81
2021/11/23 07:09:43;;;;;;;37.70;20.05;;;3.40;96.80;;;;;;5040183;28;20025;-81
2021/11/23 07:12:09;;;;;;;34.45;19.65;;;3.40;96.80;;;;;;5040006;28;20452;-81
2021/11/23 07:14:36;;;;;;;32.47;20.48;;;3.40;96.90;;;;;;5074328;28;20107;-81
2021/11/23 07:17:02;;;;;;;32.10;19.85;;;3.40;96.90;;;;;;5056028;28;20492;-81
2021/11/23 07:19:28;;;;;;;29.23;18.77;;;3.40;96.90;;;;;;5055444;28;20102;-81
2021/11/23 07:21:54;;;;;;;33.42;18.08;;;3.40;97.00;;;;;;5056587;28;20444;-81
2021/11/23 07:24:19;;;;;;;28.25;18.45;;;3.50;97.00;;;;;;5021280;28;20489;-82
2021/11/23 07:26:45;;;;;;;28.40;18.80;;;3.50;97.00;;;;;;5037609;28;20044;-81
2021/11/23 07:29:11;;;;;;;30.40;18.95;;;3.50;97.00;;;;;;5018226;28;20471;-82
2021/11/23 07:31:37;;;;;;;30.15;18.85;;;3.50;97.00;;;;;;5054753;28;20092;-81
2021/11/23 07:34:05;;;;;;;33.42;18.20;;;3.50;97.00;;;;;;5036926;28;20091;-81
2021/11/23 07:36:30;;;;;;;32.05;18.85;;;3.50;97.00;;;;;;5054511;28;20025;-82
2021/11/23 07:39:00;;;;;;;31.55;18.50;;;3.60;97.00;;;;;;5060841;28;20020;-82
2021/11/23 07:41:26;;;;;;;34.53;19.77;;;3.60;97.00;;;;;;5074122;28;20025;-81
2021/11/23 07:43:52;;;;;;;31.30;19.77;;;3.60;97.00;;;;;;5074531;28;20124;-82
2021/11/23 07:46:18;;;;;;;37.47;21.38;;;3.60;97.00;;;;;;5056205;28;20115;-82
2021/11/23 07:48:45;;;;;;;35.30;21.15;;;3.70;97.10;;;;;;5055613;28;20370;-81
2021/11/23 07:51:11;;;;;;;40.05;22.35;;;3.70;97.10;;;;;;5040001;28;20057;-82
2021/11/23 07:53:40;;;;;;;36.35;22.05;;;3.70;97.10;;;;;;5055856;28;20032;-81
2021/11/23 07:56:06;;;;;;;48.35;25.90;;;3.70;97.20;;;;;;5047005;28;20040;-82
2021/11/23 07:58:32;;;;;;;40.58;24.30;;;3.70;97.30;;;;;;5071717;28;20134;-81
2021/11/23 08:00:58;;;;;;;37.17;22.05;;;3.70;97.30;;;;;;5072829;28;20111;-81
2021/11/23 08:03:25;;;;;;;31.17;21.00;;;3.70;97.30;;;;;;5072003;28;20032;-82
2021/11/23 08:05:51;;;;;;;47.97;26.60;;;3.70;97.30;;;;;;5072015;28;20024;-81
2021/11/23 08:08:16;;;;;;;40.72;26.50;;;3.70;97.40;;;;;;5072068;28;20082;-82
2021/11/23 08:10:43;;;;;;;44.80;27.88;;;3.80;97.40;;;;;;5055614;28;20029;-81
2021/11/23 08:13:09;;;;;;;52.42;31.13;;;3.80;97.40;;;;;;5073164;28;20032;-81
2021/11/23 08:15:36;;;;;;;46.03;28.00;;;3.90;97.50;;;;;;5055544;28;20512;-82
2021/11/23 08:18:09;;;;;;;43.63;28.92;;;3.90;97.50;;;;;;5055558;28;20040;-82
2021/11/23 08:20:35;;;;;;;47.78;31.98;;;4.00;97.60;;;;;;5072406;28;20098;-81
2021/11/23 08:23:01;;;;;;;51.42;32.20;;;4.00;97.50;;;;;;5071614;28;20485;-81
2021/11/23 08:25:27;;;;;;;49.65;33.80;;;4.00;97.50;;;;;;5071188;28;20790;-82
2021/11/23 08:27:54;;;;;;;56.78;35.22;;;4.10;97.60;;;;;;5069207;28;20032;-82
2021/11/23 08:30:21;;;;;;;60.25;36.17;;;4.10;97.60;;;;;;5067837;28;20029;-82
2021/11/23 08:32:47;;;;;;;48.28;35.25;;;4.10;97.60;;;;;;5025247;28;20021;-82
2021/11/23 08:35:13;;;;;;;49.70;34.00;;;4.10;97.60;;;;;;5039394;28;20036;-82
2021/11/23 08:37:39;;;;;;;53.65;36.95;;;4.20;97.70;;;;;;5070204;28;20031;-81
2021/11/23 08:40:07;;;;;;;60.88;36.20;;;4.20;97.70;;;;;;5072261;28;20377;-81
2021/11/23 08:42:34;;;;;;;54.85;36.60;;;4.30;97.80;;;;;;5070870;28;20024;-81
2021/11/23 08:44:59;;;;;;;65.50;39.45;;;4.20;97.70;;;;;;5069381;28;20024;-82
2021/11/23 08:47:25;;;;;;;58.78;35.78;;;4.30;97.70;;;;;;5070072;28;20078;-82
2021/11/23 08:49:51;;;;;;;66.20;41.88;;;4.30;97.70;;;;;;5053663;28;20086;-82
2021/11/23 08:52:19;;;;;;;60.45;39.80;;;4.40;97.70;;;;;;5070783;28;20037;-82
2021/11/23 08:54:46;;;;;;;67.38;41.95;;;4.40;97.70;;;;;;5053338;28;20059;-81
2021/11/23 08:57:12;;;;;;;66.30;42.20;;;4.50;97.80;;;;;;5067921;28;20051;-82
2021/11/23 08:59:44;;;;;;;60.45;40.17;;;4.50;97.80;;;;;;5053699;28;20397;-82
2021/11/23 09:02:13;;;;;;;73.60;43.80;;;4.50;97.80;;;;;;5063257;28;20045;-82
2021/11/23 09:04:40;;;;;;;64.55;41.55;;;4.60;97.80;;;;;;5052865;28;20045;-82
2021/11/23 09:07:09;;;;;;;70.40;41.80;;;4.70;97.80;;;;;;5035137;28;20144;-82
2021/11/23 09:09:41;;;;;;;66.85;43.55;;;4.60;97.80;;;;;;5055323;28;20020;-82
2021/11/23 09:12:07;;;;;;;66.97;41.47;;;4.70;97.80;;;;;;5054659;28;20027;-82
2021/11/23 09:14:35;;;;;;;64.60;39.85;;;4.70;97.80;;;;;;5072577;28;20055;-82
2021/11/23 09:17:04;;;;;;;75.75;47.30;;;4.80;97.90;;;;;;5034311;28;20056;-80
2021/11/23 09:19:30;;;;;;;72.57;44.05;;;4.90;97.90;;;;;;5035019;28;20409;-81
2021/11/23 09:21:56;;;;;;;63.15;40.38;;;4.90;97.80;;;;;;5052391;28;20029;-79
2021/11/23 09:24:22;;;;;;;94.53;49.05;;;4.90;97.80;;;;;;5018318;28;20029;-79
2021/11/23 09:26:51;;;;;;;67.80;42.30;;;4.90;97.70;;;;;;5034852;28;20033;-79
2021/11/23 09:29:17;;;;;;;90.32;51.50;;;4.90;97.80;;;;;;5018318;28;20029;-79
2021/11/23 09:31:43;;;;;;;97.43;53.67;;;4.90;97.90;;;;;;5058561;28;20427;-79
2021/11/23 09:34:10;;;;;;;97.13;51.70;;;4.90;98.00;;;;;;5071578;28;20029;-79
2021/11/23 09:36:36;;;;;;;85.65;49.35;;;4.80;98.00;;;;;;5032304;28;20047;-79
2021/11/23 09:39:02;;;;;;;68.50;41.00;;;4.90;98.10;;;;;;5033440;28;20129;-79
2021/11/23 09:41:29;;;;;;;93.13;50.85;;;5.00;98.20;;;;;;5033713;28;20119;-79
2021/11/23 09:43:55;;;;;;;98.00;54.40;;;4.90;98.20;;;;;;5053645;28;20392;-79
2021/11/23 09:46:21;;;;;;;91.35;53.10;;;4.90;98.20;;;;;;5069979;28;20024;-80
2021/11/23 09:48:47;;;;;;;116.88;54.25;;;5.00;98.30;;;;;;5051987;28;20123;-79
2021/11/23 09:51:17;;;;;;;101.68;53.72;;;5.00;98.30;;;;;;5018681;28;20094;-79
2021/11/23 09:53:43;;;;;;;106.10;55.00;;;4.90;98.30;;;;;;5070100;28;20025;-79
2021/11/23 09:56:09;;;;;;;105.75;54.80;;;4.90;98.30;;;;;;5028679;28;20474;-78
2021/11/23 09:58:35;;;;;;;89.35;49.92;;;5.00;98.40;;;;;;5031890;28;20033;-79
2021/11/23 10:01:07;;;;;;;84.40;50.08;;;5.00;98.50;;;;;;5030294;28;20110;-77
2021/11/23 10:12:26;;;;;;;100.63;53.92;;;5.20;98.50;;;;;;5057939;28;20033;-77
2021/11/23 10:15:16;;;;;;;97.60;53.00;;;5.30;98.60;;;;;;5061744;28;20083;-77
2021/11/23 10:17:46;;;;;;;104.07;58.45;;;5.30;98.60;;;;;;5062958;28;20493;-76
2021/11/23 10:20:31;;;;;;;94.80;53.35;;;5.30;98.50;;;;;;5065418;28;20090;-77
2021/11/23 10:23:08;;;;;;;94.22;49.63;;;5.40;98.60;;;;;;5066503;28;20085;-77
2021/11/23 10:25:34;;;;;;;95.53;51.20;;;5.30;98.60;;;;;;5069539;28;20024;-77
2021/11/23 10:28:01;;;;;;;114.18;58.42;;;5.40;98.60;;;;;;5068148;28;20401;-77
2021/11/23 10:30:27;;;;;;;103.53;53.95;;;5.40;98.60;;;;;;5067443;28;20115;-77
2021/11/23 10:32:53;;;;;;;108.97;56.58;;;5.40;98.70;;;;;;5067876;28;20128;-77
2021/11/23 10:35:25;;;;;;;124.57;60.70;;;5.50;98.70;;;;;;5068143;28;20036;-77
2021/11/23 10:37:52;;;;;;;107.50;58.20;;;5.50;98.80;;;;;;5068808;28;20516;-77
2021/11/23 10:40:28;;;;;;;127.28;60.53;;;5.50;98.80;;;;;;5050799;28;20047;-77
2021/11/23 10:42:59;;;;;;;129.20;61.08;;;5.60;98.90;;;;;;5068891;28;20028;-77
2021/11/23 10:45:32;;;;;;;139.43;63.33;;;5.60;98.90;;;;;;5068330;28;20082;-77
2021/11/23 10:48:01;;;;;;;97.88;54.08;;;5.60;98.90;;;;;;5068529;28;20408;-77
2021/11/23 10:50:27;;;;;;;118.70;60.15;;;5.70;99.00;;;;;;5068673;28;20040;-77
2021/11/23 10:52:52;;;;;;;121.47;61.80;;;5.70;99.00;;;;;;5049795;28;20389;-77
2021/11/23 10:55:21;;;;;;;106.13;54.42;;;5.70;99.00;;;;;;5066149;28;20794;-77
2021/11/23 10:57:47;;;;;;;105.82;56.22;;;5.80;99.00;;;;;;5068555;28;20101;-77
2021/11/23 11:00:13;;;;;;;108.72;57.88;;;5.80;99.00;;;;;;5068092;28;20048;-77
2021/11/23 11:02:40;;;;;;;135.07;62.70;;;5.90;99.10;;;;;;5066801;28;20036;-77
2021/11/23 11:05:12;;;;;;;136.95;67.63;;;5.90;99.10;;;;;;5067021;28;20755;-77
2021/11/23 11:07:38;;;;;;;147.95;66.25;;;6.00;99.20;;;;;;5069909;28;20020;-77
2021/11/23 11:10:09;;;;;;;122.97;64.38;;;6.00;99.30;;;;;;5072195;28;20028;-77
2021/11/23 11:12:36;;;;;;;151.77;66.88;;;6.00;99.30;;;;;;5070585;28;20067;-75
2021/11/23 11:15:06;;;;;;;115.53;61.30;;;6.10;99.30;;;;;;5066884;28;20032;-75
2021/11/23 11:17:32;;;;;;;135.10;61.22;;;6.10;99.30;;;;;;5070745;28;20759;-75
2021/11/23 11:20:01;;;;;;;174.73;72.18;;;6.10;99.30;;;;;;5061898;28;20029;-75
2021/11/23 11:22:27;;;;;;;103.60;57.00;;;6.10;99.30;;;;;;5061192;28;20037;-75
2021/11/23 11:27:43;;;;;;;147.60;68.00;;;6.20;99.40;;;;;;5071307;28;20032;-75
2021/11/23 11:30:18;;;;;;;121.32;60.10;;;6.20;99.40;;;;;;5063830;28;20499;-80
2021/11/23 11:32:46;;;;;;;119.63;57.83;;;6.30;99.50;;;;;;5071993;28;20120;-80
2021/11/23 11:35:30;;;;;;;114.23;57.07;;;6.30;99.40;;;;;;5053817;28;20032;-79
2021/11/23 11:38:02;;;;;;;105.80;55.40;;;6.30;99.40;;;;;;5060838;28;20040;-80
2021/11/23 11:40:32;;;;;;;118.05;59.13;;;6.40;99.40;;;;;;5072991;28;20035;-80
2021/11/23 11:43:06;;;;;;;95.97;52.38;;;6.50;99.40;;;;;;5072902;28;20020;-80
2021/11/23 11:45:50;;;;;;;132.50;61.00;;;6.50;99.40;;;;;;5067752;28;20110;-80
2021/11/23 11:48:35;;;;;;;109.80;53.40;;;6.50;99.40;;;;;;5072034;28;20040;-80
2021/11/23 11:51:08;;;;;;;111.75;54.22;;;6.50;99.40;;;;;;5072511;28;20051;-80
2021/11/23 11:53:43;;;;;;;127.18;60.63;;;6.60;99.40;;;;;;5071154;28;20488;-77
2021/11/23 11:56:10;;;;;;;125.53;59.95;;;6.60;99.70;;;;;;5072927;28;20049;-77
2021/11/23 11:58:56;;;;;;;127.38;60.08;;;6.70;99.40;;;;;;5038829;28;20451;-77
2021/11/23 12:01:23;;;;;;;113.35;54.90;;;6.70;99.40;;;;;;5073563;28;20029;-77
2021/11/23 12:04:01;;;;;;;111.43;54.53;;;6.70;99.40;;;;;;5073526;28;20024;-78
2021/11/23 12:07:11;;;;;;;107.82;53.20;;;6.80;99.40;;;;;;5040579;28;20025;-77
2021/11/23 12:09:49;;;;;;;142.23;62.30;;;6.80;99.40;;;;;;5073470;28;20362;-77
2021/11/23 12:12:14;;;;;;;116.60;57.15;;;6.80;99.40;;;;;;5073966;28;20025;-77
2021/11/23 12:14:52;;;;;;;97.45;51.83;;;6.90;99.40;;;;;;5073869;28;20024;-77
2021/11/23 12:17:36;;;;;;;103.60;51.60;;;6.90;99.50;;;;;;5073877;28;20036;-77
2021/11/23 12:20:23;;;;;;;126.75;58.40;;;6.90;99.50;;;;;;5073734;28;20108;-77
2021/11/23 12:22:50;;;;;;;134.20;62.25;;;6.90;99.40;;;;;;5035910;28;20029;-77
2021/11/23 12:25:20;;;;;;;128.27;60.75;;;7.00;99.40;;;;;;5035866;28;20048;-77
2021/11/23 12:27:47;;;;;;;118.90;58.22;;;6.90;99.40;;;;;;5033543;28;20025;-79
2021/11/23 12:30:15;;;;;;;114.07;56.13;;;7.00;99.40;;;;;;5033433;28;20033;-79
2021/11/23 12:32:42;;;;;;;126.72;58.40;;;7.00;99.50;;;;;;5033530;28;20502;-79
2021/11/23 12:35:10;;;;;;;127.85;58.40;;;7.10;99.40;;;;;;5049721;28;20033;-79
2021/11/23 12:37:38;;;;;;;141.48;61.25;;;7.10;99.40;;;;;;5071552;28;20107;-79
2021/11/23 12:40:16;;;;;;;115.53;55.10;;;7.10;99.40;;;;;;5071687;28;20362;-79
2021/11/23 12:42:52;;;;;;;124.50;56.10;;;7.10;99.50;;;;;;5072446;28;20025;-79
2021/11/23 12:45:20;;;;;;;125.10;58.13;;;7.20;99.50;;;;;;5072572;28;20031;-79
2021/11/23 12:47:50;;;;;;;145.98;60.60;;;7.20;99.40;;;;;;5073125;28;20503;-79
2021/11/23 12:50:17;;;;;;;138.45;58.63;;;7.10;99.40;;;;;;5073042;28;20032;-81